Terminal Aerodrome Forecast
Issued by NWS Central Illinois

Home | Current Version | Previous Version | Text Only | Print | Product List | Glossary On
Versions: 1 2 3 4 5 6 7 8 9 10 11 12 13
000
FTUS43 KILX 261100
TAFSPI
TAF
KSPI 261120Z 2612/2712 18012G20KT P6SM SCT100 BKN250
     FM262300 19012KT P6SM BKN025
     FM270600 18011KT 5SM -DZ BR OVC025 WS020/22040KT=

USA.gov is the U.S. government's official web portal to all federal, state and local government web resources and services.